createdAt,value
2019-05-03T00:00:08.423Z,10.83
2019-05-03T00:02:55.943Z,9.90
2019-05-03T00:05:43.416Z,10.33
2019-05-03T00:08:12.659Z,5.80
2019-05-03T00:10:42.696Z,8.93
2019-05-03T00:13:12.509Z,8.63
2019-05-03T00:16:18.247Z,8.30
2019-05-03T00:18:47.904Z,7.30
2019-05-03T00:21:15.832Z,9.30
2019-05-03T00:23:43.806Z,10.27
2019-05-03T00:26:12.086Z,7.83
2019-05-03T00:28:40.024Z,9.57
2019-05-03T00:31:07.929Z,7.13
2019-05-03T00:33:37.138Z,7.40
2019-05-03T00:36:19.126Z,8.40
2019-05-03T00:38:47.473Z,14.87
2019-05-03T00:41:15.738Z,8.27
2019-05-03T00:43:43.510Z,8.83
2019-05-03T00:46:12.618Z,8.43
2019-05-03T00:48:42.875Z,10.03
2019-05-03T00:51:11.768Z,8.77
2019-05-03T00:53:39.754Z,12.50
2019-05-03T00:56:07.452Z,16.63
2019-05-03T00:58:48.814Z,12.13
2019-05-03T01:01:16.962Z,9.23
2019-05-03T01:03:44.783Z,9.93
2019-05-03T01:06:12.601Z,7.97
2019-05-03T01:08:41.927Z,9.13
2019-05-03T01:11:09.979Z,9.73
2019-05-03T01:13:37.908Z,10.20
2019-05-03T01:16:11.703Z,9.37
2019-05-03T01:18:39.438Z,13.23
2019-05-03T01:21:07.195Z,10.07
2019-05-03T01:23:35.037Z,7.47
2019-05-03T01:26:02.754Z,7.73
2019-05-03T01:28:32.184Z,12.50
2019-05-03T01:31:02.379Z,11.30
2019-05-03T01:33:32.003Z,9.43
2019-05-03T01:35:59.643Z,7.33
2019-05-03T01:38:27.436Z,8.67
2019-05-03T01:40:55.166Z,9.17
2019-05-03T01:43:22.973Z,12.00
2019-05-03T01:45:51.890Z,12.00
2019-05-03T01:48:52.198Z,7.83
2019-05-03T01:51:39.666Z,8.07
2019-05-03T01:54:07.479Z,10.00
2019-05-03T01:56:35.235Z,7.80
2019-05-03T01:59:03.097Z,10.20
2019-05-03T02:01:42.169Z,10.60
2019-05-03T02:04:15.830Z,9.47
2019-05-03T02:06:43.799Z,9.87
2019-05-03T02:09:12.189Z,8.80
2019-05-03T02:11:42.018Z,10.87
2019-05-03T02:14:12.392Z,11.97
2019-05-03T02:16:41.997Z,10.03
2019-05-03T02:19:09.857Z,11.13
2019-05-03T02:21:37.742Z,8.97
2019-05-03T02:24:05.740Z,9.43
2019-05-03T02:26:33.485Z,13.63
2019-05-03T02:29:01.854Z,10.17
2019-05-03T02:31:32.740Z,7.93
2019-05-03T02:34:00.168Z,9.30
2019-05-03T02:36:27.943Z,10.00
2019-05-03T02:38:56.175Z,12.63
2019-05-03T02:41:23.913Z,7.20
2019-05-03T02:43:55.799Z,9.90
2019-05-03T02:46:48.444Z,8.93
2019-05-03T02:49:22.478Z,9.40
2019-05-03T02:51:50.212Z,11.97
2019-05-03T02:54:18.032Z,10.50
2019-05-03T02:56:46.194Z,10.93
2019-05-03T02:59:15.745Z,9.13
2019-05-03T03:01:46.305Z,8.23
2019-05-03T03:04:15.749Z,7.93
2019-05-03T03:06:46.335Z,10.00
2019-05-03T03:09:16.611Z,10.10
2019-05-03T03:11:46.048Z,8.10
2019-05-03T03:14:16.904Z,12.13
2019-05-03T03:16:49.679Z,10.27
2019-05-03T03:19:18.521Z,9.67
2019-05-03T03:21:49.910Z,8.53
2019-05-03T03:24:19.989Z,7.50
2019-05-03T03:26:51.080Z,12.10
2019-05-03T03:29:25.525Z,13.10
2019-05-03T03:32:30.374Z,9.13
2019-05-03T03:35:21.355Z,8.17
2019-05-03T03:37:46.623Z,8.37
2019-05-03T03:40:16.849Z,12.43
2019-05-03T03:42:45.268Z,10.00
2019-05-03T03:45:16.308Z,12.40
2019-05-03T03:47:46.899Z,8.10
2019-05-03T03:50:15.222Z,10.60
2019-05-03T03:52:45.292Z,13.30
2019-05-03T03:55:15.961Z,13.90
2019-05-03T03:57:43.098Z,9.27
2019-05-03T04:00:12.336Z,8.70
2019-05-03T04:02:40.367Z,8.80
2019-05-03T04:05:08.336Z,12.17
2019-05-03T04:07:36.417Z,9.23
2019-05-03T04:10:06.126Z,12.07
2019-05-03T04:12:35.241Z,12.20
2019-05-03T04:15:22.135Z,14.00
2019-05-03T04:18:20.347Z,7.43
2019-05-03T04:20:48.486Z,9.47
2019-05-03T04:23:16.467Z,8.17
2019-05-03T04:25:45.075Z,9.50
2019-05-03T04:28:13.118Z,11.13
2019-05-03T04:30:45.757Z,9.40
2019-05-03T04:33:12.566Z,11.20
2019-05-03T04:35:40.293Z,10.77
2019-05-03T04:38:08.161Z,9.30
2019-05-03T04:40:36.149Z,7.33
2019-05-03T04:43:06.015Z,7.30
2019-05-03T04:45:36.552Z,7.70
2019-05-03T04:48:05.970Z,10.77
2019-05-03T04:50:36.750Z,7.97
2019-05-03T04:53:05.686Z,6.33
2019-05-03T04:55:36.235Z,7.53
2019-05-03T04:58:04.787Z,8.83
2019-05-03T05:00:35.568Z,8.07
2019-05-03T05:03:02.389Z,10.73
2019-05-03T05:05:30.076Z,6.17
2019-05-03T05:07:57.862Z,9.20
2019-05-03T05:10:26.338Z,7.97
2019-05-03T05:12:55.183Z,8.77
2019-05-03T05:15:26.038Z,5.83
2019-05-03T05:18:07.518Z,6.77
2019-05-03T05:20:49.801Z,9.60
2019-05-03T05:23:17.507Z,5.20
2019-05-03T05:25:55.041Z,7.73
2019-05-03T05:28:32.643Z,11.90
2019-05-03T05:31:00.454Z,7.33
2019-05-03T05:33:28.263Z,7.63
2019-05-03T05:35:55.999Z,7.30
2019-05-03T05:38:25.586Z,5.77
2019-05-03T05:40:55.334Z,8.40
2019-05-03T05:43:27.158Z,5.10
2019-05-03T05:45:58.957Z,9.53
2019-05-03T05:48:39.679Z,6.63
2019-05-03T05:51:07.837Z,7.87
2019-05-03T05:53:35.975Z,8.33
2019-05-03T05:56:26.157Z,6.73
2019-05-03T05:59:04.493Z,14.20
2019-05-03T06:01:40.282Z,10.30
2019-05-03T06:04:10.010Z,5.80
2019-05-03T06:07:12.363Z,4.40
2019-05-03T06:10:02.663Z,6.87
2019-05-03T06:12:37.557Z,6.10
2019-05-03T06:15:11.224Z,6.57
2019-05-03T06:17:45.101Z,7.03
2019-05-03T06:20:38.847Z,4.93
2019-05-03T06:23:11.843Z,5.87
2019-05-03T06:25:41.363Z,6.20
2019-05-03T06:28:20.091Z,5.23
2019-05-03T06:31:00.983Z,5.77
2019-05-03T06:33:28.798Z,7.17
2019-05-03T06:35:56.546Z,11.43
2019-05-03T06:38:24.698Z,5.90
2019-05-03T06:40:56.028Z,6.50
2019-05-03T06:43:27.487Z,5.10
2019-05-03T06:45:55.939Z,6.33
2019-05-03T06:48:28.167Z,3.00
2019-05-03T06:50:55.781Z,5.77
2019-05-03T06:53:27.772Z,7.03
2019-05-03T06:55:56.011Z,5.47
2019-05-03T06:58:31.225Z,6.90
2019-05-03T07:01:34.587Z,8.73
2019-05-03T07:04:15.133Z,4.90
2019-05-03T07:07:06.319Z,6.20
2019-05-03T07:09:54.648Z,3.23
2019-05-03T07:12:24.885Z,5.67
2019-05-03T07:14:57.598Z,5.20
2019-05-03T07:17:34.911Z,8.13
2019-05-03T07:20:04.672Z,8.23
2019-05-03T07:22:38.393Z,5.87
2019-05-03T07:25:08.897Z,3.93
2019-05-03T07:27:39.568Z,4.80
2019-05-03T07:30:11.780Z,8.70
2019-05-03T07:32:45.548Z,4.80
2019-05-03T07:35:18.955Z,5.53
2019-05-03T07:37:47.324Z,5.57
2019-05-03T07:40:21.895Z,7.00
2019-05-03T07:42:50.226Z,5.40
2019-05-03T07:45:18.409Z,6.57
2019-05-03T07:47:46.409Z,4.10
2019-05-03T07:50:17.633Z,7.80
2019-05-03T07:52:45.727Z,6.80
2019-05-03T07:55:21.573Z,11.03
2019-05-03T07:57:55.829Z,6.17
2019-05-03T08:00:26.630Z,4.30
2019-05-03T08:02:54.961Z,4.53
2019-05-03T08:05:24.688Z,4.70
2019-05-03T08:07:55.375Z,5.50
2019-05-03T08:10:25.642Z,4.33
2019-05-03T08:12:54.420Z,3.67
2019-05-03T08:15:24.929Z,3.40
2019-05-03T08:17:52.991Z,8.20
2019-05-03T08:20:24.694Z,2.17
2019-05-03T08:22:51.983Z,7.00
2019-05-03T08:25:22.374Z,3.53
2019-05-03T08:27:51.666Z,3.57
2019-05-03T08:30:29.134Z,4.17
2019-05-03T08:33:28.299Z,5.70
2019-05-03T08:35:56.907Z,3.03
2019-05-03T08:38:25.809Z,2.90
2019-05-03T08:40:56.050Z,5.70
2019-05-03T08:43:26.776Z,3.60
2019-05-03T08:45:55.435Z,1.50
2019-05-03T08:48:24.958Z,4.57
2019-05-03T08:50:52.936Z,4.73
2019-05-03T08:53:20.775Z,2.30
2019-05-03T08:55:50.338Z,3.70
2019-05-03T08:58:18.145Z,5.27
2019-05-03T09:00:46.075Z,6.30
2019-05-03T09:03:14.426Z,3.37
2019-05-03T09:05:45.368Z,2.70
2019-05-03T09:08:12.120Z,2.47
2019-05-03T09:10:59.476Z,6.80
2019-05-03T09:13:34.361Z,3.63
2019-05-03T09:16:02.467Z,4.20
2019-05-03T09:18:30.516Z,4.90
2019-05-03T09:20:58.331Z,4.27
2019-05-03T09:23:26.624Z,5.83
2019-05-03T09:25:54.877Z,2.20
2019-05-03T09:28:22.816Z,5.13
2019-05-03T09:30:50.699Z,2.90
2019-05-03T09:33:18.457Z,2.23
2019-05-03T09:35:46.172Z,2.63
2019-05-03T09:38:15.015Z,4.63
2019-05-03T09:40:44.802Z,4.00
2019-05-03T09:43:14.918Z,4.40
2019-05-03T09:45:42.550Z,5.20
2019-05-03T09:48:10.280Z,3.07
2019-05-03T09:50:38.650Z,4.10
2019-05-03T09:53:08.857Z,1.83
2019-05-03T09:55:39.045Z,4.73
2019-05-03T09:58:15.289Z,3.17
2019-05-03T10:00:44.608Z,5.03
2019-05-03T10:03:12.552Z,2.83
2019-05-03T10:05:40.410Z,4.90
2019-05-03T10:08:08.127Z,3.17
2019-05-03T10:10:53.911Z,5.37
2019-05-03T10:13:23.870Z,3.17
2019-05-03T10:15:51.483Z,3.53
2019-05-03T10:18:19.260Z,3.73
2019-05-03T10:20:47.135Z,6.13
2019-05-03T10:23:37.158Z,4.77
2019-05-03T10:26:05.332Z,3.63
2019-05-03T10:28:33.268Z,7.40
2019-05-03T10:31:01.319Z,3.90
2019-05-03T10:33:35.575Z,7.77
2019-05-03T10:36:05.514Z,9.77
2019-05-03T10:38:33.139Z,6.30
2019-05-03T10:41:02.162Z,3.30
2019-05-03T10:43:30.301Z,4.33
2019-05-03T10:45:58.489Z,5.57
2019-05-03T10:48:26.667Z,6.87
2019-05-03T10:50:56.437Z,4.50
2019-05-03T10:53:28.999Z,4.27
2019-05-03T10:56:23.030Z,4.50
2019-05-03T10:59:08.270Z,4.60
2019-05-03T11:01:54.556Z,7.97
2019-05-03T11:04:22.774Z,5.20
2019-05-03T11:06:50.478Z,4.00
2019-05-03T11:09:18.344Z,6.97
2019-05-03T11:11:46.160Z,3.23
2019-05-03T11:14:14.928Z,4.47
2019-05-03T11:16:43.062Z,6.47
2019-05-03T11:19:10.824Z,6.00
2019-05-03T11:21:38.575Z,4.70
2019-05-03T11:24:06.381Z,10.13
2019-05-03T11:26:35.172Z,4.00
2019-05-03T11:29:04.976Z,7.27
2019-05-03T11:31:49.421Z,4.23
2019-05-03T11:34:22.235Z,5.03
2019-05-03T11:37:08.037Z,2.80
2019-05-03T11:39:36.017Z,5.10
2019-05-03T11:42:04.681Z,6.33
2019-05-03T11:44:48.999Z,3.23
2019-05-03T11:47:16.769Z,3.73
2019-05-03T11:49:45.467Z,3.20
2019-05-03T11:52:17.515Z,4.60
2019-05-03T11:54:45.493Z,5.97
2019-05-03T11:57:20.687Z,5.03
2019-05-03T11:59:48.447Z,4.97
2019-05-03T12:02:37.294Z,2.50
2019-05-03T12:05:08.238Z,3.10
2019-05-03T12:07:39.340Z,5.00
2019-05-03T12:10:16.209Z,3.57
2019-05-03T12:12:38.128Z,5.60
2019-05-03T12:15:06.451Z,7.87
2019-05-03T12:17:50.400Z,6.70
2019-05-03T12:20:08.771Z,3.13
2019-05-03T12:22:37.507Z,6.80
2019-05-03T12:25:10.076Z,3.60
2019-05-03T12:27:35.919Z,5.30
2019-05-03T12:30:05.017Z,3.77
2019-05-03T12:32:34.543Z,2.60
2019-05-03T12:35:02.655Z,6.23
2019-05-03T12:37:30.402Z,5.27
2019-05-03T12:39:58.127Z,4.57
2019-05-03T12:42:25.977Z,3.10
2019-05-03T12:44:55.173Z,4.33
2019-05-03T12:47:25.005Z,8.33
2019-05-03T12:49:52.714Z,5.30
2019-05-03T12:52:21.163Z,5.30
2019-05-03T12:54:49.266Z,3.00
2019-05-03T12:57:17.196Z,3.57
2019-05-03T12:59:51.686Z,2.63
2019-05-03T13:02:39.032Z,3.73
2019-05-03T13:05:09.208Z,5.27
2019-05-03T13:07:42.220Z,6.20
2019-05-03T13:10:10.554Z,5.83
2019-05-03T13:12:49.846Z,6.47
2019-05-03T13:15:08.625Z,4.60
2019-05-03T13:17:36.715Z,4.90
2019-05-03T13:20:07.535Z,4.30
2019-05-03T13:22:35.752Z,6.50
2019-05-03T13:25:05.607Z,7.13
2019-05-03T13:27:34.940Z,5.20
2019-05-03T13:30:05.199Z,5.73
2019-05-03T13:32:34.904Z,5.53
2019-05-03T13:35:02.866Z,8.00
2019-05-03T13:37:30.620Z,7.80
2019-05-03T13:39:58.537Z,5.73
2019-05-03T13:42:26.253Z,5.40
2019-05-03T13:44:55.277Z,5.47
2019-05-03T13:47:23.201Z,7.70
2019-05-03T13:49:51.134Z,6.23
2019-05-03T13:52:18.877Z,7.00
2019-05-03T13:54:47.963Z,7.57
2019-05-03T13:57:15.787Z,7.00
2019-05-03T13:59:44.826Z,9.30
2019-05-03T14:02:18.909Z,6.03
2019-05-03T14:04:50.229Z,8.17
2019-05-03T14:07:15.181Z,4.90
2019-05-03T14:09:45.102Z,6.00
2019-05-03T14:12:12.789Z,7.70
2019-05-03T14:14:55.326Z,4.70
2019-05-03T14:17:25.275Z,6.23
2019-05-03T14:19:59.585Z,5.47
2019-05-03T14:22:29.434Z,7.90
2019-05-03T14:24:57.193Z,5.63
2019-05-03T14:27:25.384Z,4.13
2019-05-03T14:29:54.901Z,7.33
2019-05-03T14:32:28.366Z,6.80
2019-05-03T14:34:54.591Z,6.27
2019-05-03T14:37:22.226Z,9.90
2019-05-03T14:39:49.953Z,8.30
2019-05-03T14:42:17.652Z,6.70
2019-05-03T14:44:45.559Z,5.70
2019-05-03T14:47:14.793Z,7.80
2019-05-03T14:49:42.758Z,3.83
2019-05-03T14:52:10.480Z,9.63
2019-05-03T14:54:40.243Z,5.23
2019-05-03T14:57:25.905Z,4.50
2019-05-03T15:00:11.140Z,5.50
2019-05-03T15:02:47.591Z,3.93
2019-05-03T15:05:14.727Z,5.93
2019-05-03T15:07:42.424Z,4.70
2019-05-03T15:10:10.544Z,4.00
2019-05-03T15:12:38.337Z,5.53
2019-05-03T15:15:06.246Z,7.23
2019-05-03T15:17:35.078Z,7.40
2019-05-03T15:20:03.712Z,6.33
2019-05-03T15:22:32.336Z,6.23
2019-05-03T15:25:00.175Z,6.07
2019-05-03T15:27:27.881Z,7.20
2019-05-03T15:29:55.992Z,4.20
2019-05-03T15:32:23.816Z,8.63
2019-05-03T15:34:51.771Z,3.40
2019-05-03T15:37:19.598Z,4.60
2019-05-03T15:39:49.281Z,6.43
2019-05-03T15:42:18.306Z,5.97
2019-05-03T15:45:09.164Z,4.50
2019-05-03T15:47:45.645Z,5.40
2019-05-03T15:50:15.583Z,5.70
2019-05-03T15:52:44.468Z,5.13
2019-05-03T15:55:12.839Z,4.70
2019-05-03T15:57:40.705Z,4.37
2019-05-03T16:00:10.375Z,4.17
2019-05-03T16:02:38.119Z,4.93
2019-05-03T16:05:06.148Z,7.80
2019-05-03T16:07:35.543Z,5.30
2019-05-03T16:10:04.719Z,4.37
2019-05-03T16:12:34.341Z,3.90
2019-05-03T16:15:04.538Z,3.40
2019-05-03T16:17:31.990Z,6.80
2019-05-03T16:19:59.954Z,3.80
2019-05-03T16:22:27.625Z,3.20
2019-05-03T16:24:55.830Z,3.10
2019-05-03T16:27:49.085Z,4.20
2019-05-03T16:30:36.752Z,6.07
2019-05-03T16:33:04.860Z,4.00
2019-05-03T16:35:34.995Z,3.23
2019-05-03T16:38:03.770Z,3.63
2019-05-03T16:40:31.711Z,3.07
2019-05-03T16:43:00.729Z,4.63
2019-05-03T16:45:28.551Z,3.20
2019-05-03T16:47:56.638Z,5.97
2019-05-03T16:50:25.093Z,3.43
2019-05-03T16:52:54.885Z,4.17
2019-05-03T16:55:22.931Z,6.97
2019-05-03T16:57:50.708Z,3.90
2019-05-03T17:00:18.771Z,3.10
2019-05-03T17:02:46.591Z,5.73
2019-05-03T17:05:25.238Z,4.70
2019-05-03T17:08:14.579Z,4.20
2019-05-03T17:10:45.569Z,4.50
2019-05-03T17:13:16.359Z,4.27
2019-05-03T17:15:44.261Z,3.90
2019-05-03T17:18:12.051Z,4.50
2019-05-03T17:20:39.794Z,4.27
2019-05-03T17:23:07.796Z,3.10
2019-05-03T17:25:35.757Z,3.67
2019-05-03T17:28:05.007Z,4.67
2019-05-03T17:30:35.126Z,4.03
2019-05-03T17:33:04.455Z,2.70
2019-05-03T17:35:32.302Z,4.83
2019-05-03T17:38:00.181Z,2.50
2019-05-03T17:40:44.243Z,2.50
2019-05-03T17:43:34.628Z,3.43
2019-05-03T17:46:04.404Z,7.23
2019-05-03T17:48:32.256Z,14.43
2019-05-03T17:51:00.095Z,3.67
2019-05-03T17:53:54.872Z,2.80
2019-05-03T17:56:44.412Z,3.60
2019-05-03T17:59:24.384Z,4.93
2019-05-03T18:02:23.831Z,5.47
2019-05-03T18:05:17.618Z,2.70
2019-05-03T18:08:11.105Z,3.13
2019-05-03T18:10:40.315Z,3.03
2019-05-03T18:13:08.041Z,5.27
2019-05-03T18:15:35.754Z,4.07
2019-05-03T18:18:05.282Z,5.77
2019-05-03T18:20:34.612Z,5.30
2019-05-03T18:23:02.535Z,4.43
2019-05-03T18:25:30.433Z,3.90
2019-05-03T18:27:58.290Z,4.33
2019-05-03T18:30:26.380Z,5.17
2019-05-03T18:32:54.477Z,4.73
2019-05-03T18:35:22.357Z,3.90
2019-05-03T18:37:57.750Z,3.70
2019-05-03T18:40:25.691Z,5.53
2019-05-03T18:42:56.766Z,4.60
2019-05-03T18:45:49.608Z,8.50
2019-05-03T18:48:17.473Z,6.83
2019-05-03T18:50:47.725Z,5.90
2019-05-03T18:53:15.597Z,5.47
2019-05-03T18:55:44.435Z,4.00
2019-05-03T18:58:12.439Z,5.13
2019-05-03T19:00:40.264Z,3.60
2019-05-03T19:03:08.095Z,2.13
2019-05-03T19:05:37.840Z,4.43
2019-05-03T19:08:15.336Z,5.83
2019-05-03T19:10:50.661Z,2.27
2019-05-03T19:13:26.463Z,4.73
2019-05-03T19:15:55.078Z,3.83
2019-05-03T19:18:30.823Z,4.70
2019-05-03T19:20:58.671Z,3.90
2019-05-03T19:23:26.423Z,6.20
2019-05-03T19:25:55.264Z,5.57
2019-05-03T19:28:24.942Z,4.10
2019-05-03T19:30:54.877Z,4.73
2019-05-03T19:33:22.824Z,4.07
2019-05-03T19:35:50.620Z,3.37
2019-05-03T19:38:18.453Z,6.73
2019-05-03T19:40:46.185Z,3.10
2019-05-03T19:43:15.272Z,4.23
2019-05-03T19:45:44.915Z,4.13
2019-05-03T19:48:14.759Z,3.17
2019-05-03T19:50:48.118Z,3.90
2019-05-03T19:53:37.731Z,4.10
2019-05-03T19:56:05.947Z,3.50
2019-05-03T19:58:35.329Z,4.07
2019-05-03T20:01:30.474Z,6.60
2019-05-03T20:04:09.348Z,3.70
2019-05-03T20:06:47.581Z,4.00
2019-05-03T20:09:17.032Z,5.03
2019-05-03T20:11:46.035Z,4.93
2019-05-03T20:14:14.890Z,3.70
2019-05-03T20:16:44.985Z,2.87
2019-05-03T20:19:20.645Z,2.83
2019-05-03T20:21:45.074Z,6.27
2019-05-03T20:24:14.786Z,5.93
2019-05-03T20:27:16.235Z,4.20
2019-05-03T20:29:46.147Z,8.60
2019-05-03T20:32:16.080Z,3.60
2019-05-03T20:34:45.200Z,6.60
2019-05-03T20:37:14.730Z,8.27
2019-05-03T20:39:42.933Z,6.17
2019-05-03T20:42:15.248Z,7.70
2019-05-03T20:44:54.919Z,4.50
2019-05-03T20:47:36.123Z,6.37
2019-05-03T20:50:15.461Z,7.13
2019-05-03T20:52:44.455Z,6.63
2019-05-03T20:55:15.358Z,6.00
2019-05-03T20:57:44.409Z,7.00
2019-05-03T21:00:15.474Z,8.23
2019-05-03T21:02:51.600Z,6.70
2019-05-03T21:05:24.669Z,6.80
2019-05-03T21:07:43.063Z,11.33
2019-05-03T21:10:11.319Z,8.67
2019-05-03T21:12:39.085Z,8.67
2019-05-03T21:15:10.904Z,7.23
2019-05-03T21:18:01.453Z,8.10
2019-05-03T21:21:07.008Z,5.57
2019-05-03T21:23:38.632Z,6.13
2019-05-03T21:26:13.538Z,6.30
2019-05-03T21:28:39.262Z,8.30
2019-05-03T21:31:07.251Z,8.23
2019-05-03T21:33:35.542Z,6.33
2019-05-03T21:36:04.658Z,5.03
2019-05-03T21:38:32.714Z,5.00
2019-05-03T21:41:00.778Z,6.83
2019-05-03T21:43:28.494Z,4.50
2019-05-03T21:46:04.485Z,3.90
2019-05-03T21:48:50.338Z,6.33
2019-05-03T21:51:18.078Z,4.57
2019-05-03T21:53:45.855Z,5.40
2019-05-03T21:56:14.318Z,4.93
2019-05-03T21:58:42.267Z,6.00
2019-05-03T22:01:11.736Z,7.60
2019-05-03T22:03:39.809Z,6.80
2019-05-03T22:06:07.852Z,4.90
2019-05-03T22:08:35.773Z,7.30
2019-05-03T22:11:05.241Z,7.97
2019-05-03T22:13:34.877Z,5.90
2019-05-03T22:16:25.844Z,6.43
2019-05-03T22:18:56.330Z,8.13
2019-05-03T22:21:34.656Z,4.57
2019-05-03T22:24:21.753Z,6.77
2019-05-03T22:26:58.643Z,6.90
2019-05-03T22:29:26.459Z,10.03
2019-05-03T22:31:54.855Z,6.60
2019-05-03T22:34:22.742Z,9.20
2019-05-03T22:36:50.587Z,7.60
2019-05-03T22:39:18.273Z,6.43
2019-05-03T22:41:46.168Z,7.60
2019-05-03T22:44:16.743Z,5.83
2019-05-03T22:46:44.637Z,5.90
2019-05-03T22:49:12.568Z,6.97
2019-05-03T22:51:40.271Z,4.30
2019-05-03T22:54:15.182Z,7.03
2019-05-03T22:56:44.746Z,5.83
2019-05-03T22:59:14.514Z,8.77
2019-05-03T23:01:42.285Z,7.23
2019-05-03T23:04:10.088Z,7.47
2019-05-03T23:06:37.964Z,5.83
2019-05-03T23:09:06.372Z,6.77
2019-05-03T23:11:35.317Z,5.40
2019-05-03T23:14:06.332Z,7.10
2019-05-03T23:16:35.641Z,8.83
2019-05-03T23:19:05.549Z,6.37
2019-05-03T23:22:00.556Z,11.73
2019-05-03T23:24:28.374Z,6.23
2019-05-03T23:26:56.376Z,10.20
2019-05-03T23:29:24.251Z,8.87
2019-05-03T23:31:52.313Z,7.87
2019-05-03T23:34:20.020Z,7.00
2019-05-03T23:36:47.773Z,13.00
2019-05-03T23:39:15.631Z,7.93
2019-05-03T23:41:43.387Z,10.23
2019-05-03T23:44:11.284Z,5.40
2019-05-03T23:46:45.529Z,8.50
2019-05-03T23:49:14.501Z,12.33
2019-05-03T23:51:50.427Z,6.77
2019-05-03T23:54:18.553Z,5.63
2019-05-03T23:56:46.493Z,7.43
2019-05-03T23:59:14.892Z,7.53
